Time;durP1;ratioP1;P1;durP2;ratioP2;P2;SDS_P1;SDS_P2;PMS_P1;PMS_P2;Temp;Humidity;BMP_temperature;BMP_pressure;BME280_temperature;BME280_humidity;BME280_pressure;Samples;Min_cycle;Max_cycle;Signal;HPM_P1;HPM_P2
2022/10/13 00:08:49;;;;;;;4.22;1.70;;;9.00;99.90;;;;;;4863798;29;20099;-85
2022/10/13 00:38:56;;;;;;;3.60;1.98;;;9.10;99.90;;;;;;4956590;29;20042;-85
2022/10/13 01:14:28;;;;;;;5.10;2.22;;;9.20;99.90;;;;;;4983710;23;20089;-85
2022/10/13 01:17:14;;;;;;;5.43;1.70;;;9.20;99.90;;;;;;4975972;28;20062;-86
2022/10/13 01:19:51;;;;;;;5.60;2.08;;;9.20;99.90;;;;;;4975858;28;20047;-85
2022/10/13 01:22:36;;;;;;;4.28;2.13;;;9.30;99.90;;;;;;4984100;28;20054;-87
2022/10/13 01:25:10;;;;;;;4.60;2.20;;;9.20;99.90;;;;;;4982366;28;20061;-86
2022/10/13 01:27:58;;;;;;;3.50;1.95;;;9.20;99.90;;;;;;4976045;28;20062;-86
2022/10/13 01:30:24;;;;;;;5.00;1.92;;;9.20;99.90;;;;;;4974308;28;20050;-86
2022/10/13 01:33:19;;;;;;;5.40;1.80;;;9.20;99.90;;;;;;4966894;28;20125;-85
2022/10/13 01:35:57;;;;;;;5.95;2.33;;;9.30;99.90;;;;;;4916474;29;20092;-85
2022/10/13 01:38:59;;;;;;;4.03;2.00;;;9.20;99.90;;;;;;4923549;29;20512;-89
2022/10/13 01:41:34;;;;;;;4.57;1.80;;;9.20;99.90;;;;;;4923390;29;20106;-86
2022/10/13 01:44:25;;;;;;;3.90;2.20;;;10.00;99.90;;;;;;4930188;29;20050;-87
2022/10/13 01:46:52;;;;;;;6.13;2.50;;;9.20;99.90;;;;;;4902618;29;20067;-86
2022/10/13 01:49:22;;;;;;;5.47;2.45;;;9.60;99.90;;;;;;4918006;29;20131;-85
2022/10/13 01:51:49;;;;;;;5.82;2.67;;;9.70;99.90;;;;;;4917804;29;20048;-86
2022/10/13 01:54:15;;;;;;;6.13;2.28;;;9.30;99.90;;;;;;4906426;29;20146;-87
2022/10/13 01:56:40;;;;;;;5.32;2.33;;;10.50;99.90;;;;;;4909655;29;20063;-86
2022/10/13 01:59:13;;;;;;;5.57;2.47;;;10.00;99.90;;;;;;4922536;29;20051;-87
2022/10/13 02:01:47;;;;;;;3.63;1.95;;;9.20;99.90;;;;;;4921730;29;20122;-87
2022/10/13 02:04:30;;;;;;;3.65;2.00;;;9.90;99.90;;;;;;4900029;29;20504;-85
2022/10/13 02:07:10;;;;;;;5.55;1.98;;;9.20;99.90;;;;;;4915314;29;20047;-86
2022/10/13 02:09:46;;;;;;;5.00;2.03;;;9.30;99.90;;;;;;4922406;29;20041;-86
2022/10/13 02:12:35;;;;;;;5.13;2.20;;;9.30;99.90;;;;;;4936852;28;20050;-87
2022/10/13 02:15:03;;;;;;;4.68;2.10;;;9.30;99.90;;;;;;4975426;28;20049;-88
2022/10/13 02:17:30;;;;;;;3.63;1.77;;;9.30;99.90;;;;;;4974934;28;20072;-86
2022/10/13 02:19:57;;;;;;;5.25;2.20;;;9.20;99.90;;;;;;4974940;28;20050;-86
2022/10/13 02:22:29;;;;;;;4.22;2.47;;;9.30;99.90;;;;;;4973177;28;20053;-86
2022/10/13 02:24:55;;;;;;;4.57;2.28;;;10.30;99.90;;;;;;4975358;28;20070;-87
2022/10/13 02:27:22;;;;;;;5.10;2.08;;;9.70;99.90;;;;;;4975920;28;20042;-87
2022/10/13 02:29:54;;;;;;;2.92;1.80;;;9.30;99.90;;;;;;4972922;28;20053;-86
2022/10/13 02:32:21;;;;;;;4.13;2.17;;;9.30;99.90;;;;;;4973939;28;20051;-86
2022/10/13 02:34:47;;;;;;;5.03;2.65;;;9.30;99.90;;;;;;4972992;28;20154;-85
2022/10/13 02:37:12;;;;;;;7.80;2.78;;;9.30;99.90;;;;;;4980058;28;20122;-86
2022/10/13 02:39:38;;;;;;;5.05;2.40;;;9.30;99.90;;;;;;4974588;28;20050;-87
2022/10/13 02:42:05;;;;;;;4.32;2.03;;;10.30;99.90;;;;;;4972982;28;20047;-86
2022/10/13 02:44:31;;;;;;;4.70;1.90;;;9.30;99.90;;;;;;4973376;28;20383;-87
2022/10/13 02:46:56;;;;;;;5.72;1.98;;;9.30;99.90;;;;;;4972741;28;20051;-87
2022/10/13 02:49:22;;;;;;;7.80;2.80;;;10.10;99.90;;;;;;4973950;28;20089;-87
2022/10/13 02:51:48;;;;;;;7.13;3.33;;;9.70;99.90;;;;;;4972369;28;20039;-88
2022/10/13 02:54:13;;;;;;;5.20;2.53;;;10.10;99.90;;;;;;4974226;28;20126;-88
2022/10/13 02:56:39;;;;;;;6.15;3.13;;;9.30;99.90;;;;;;4975097;28;20046;-87
2022/10/13 02:59:05;;;;;;;8.40;2.75;;;9.30;99.90;;;;;;4978674;28;20049;-86
2022/10/13 03:01:31;;;;;;;5.18;2.95;;;10.00;99.90;;;;;;4975635;28;20097;-87
2022/10/13 03:03:58;;;;;;;5.10;2.85;;;9.50;99.90;;;;;;4972947;28;20057;-87
2022/10/13 03:06:24;;;;;;;6.05;2.45;;;10.20;99.90;;;;;;4975738;28;20066;-86
2022/10/13 03:08:50;;;;;;;4.07;2.22;;;9.30;99.90;;;;;;4956823;28;20545;-89
2022/10/13 03:11:15;;;;;;;4.47;2.42;;;9.30;99.90;;;;;;4972714;28;20049;-85
2022/10/13 03:13:41;;;;;;;4.50;2.38;;;10.10;99.90;;;;;;4972279;28;20133;-87
2022/10/13 03:16:07;;;;;;;5.20;2.60;;;10.00;99.90;;;;;;4972687;28;20042;-87
2022/10/13 03:18:34;;;;;;;4.97;2.85;;;10.40;99.90;;;;;;4988953;28;20078;-86
2022/10/13 03:21:04;;;;;;;6.45;3.30;;;9.30;99.90;;;;;;4976521;28;20042;-86
2022/10/13 03:23:30;;;;;;;7.07;2.80;;;9.30;99.90;;;;;;4977072;28;20038;-86
2022/10/13 03:25:56;;;;;;;4.93;2.45;;;9.30;99.90;;;;;;4979097;28;20046;-88
2022/10/13 03:28:22;;;;;;;6.78;2.83;;;9.70;99.90;;;;;;4972634;28;20042;-87
2022/10/13 03:30:48;;;;;;;4.68;2.40;;;9.40;99.90;;;;;;4974017;28;20035;-88
2022/10/13 03:33:14;;;;;;;5.60;2.60;;;9.40;99.90;;;;;;4982024;28;20070;-87
2022/10/13 03:35:40;;;;;;;8.73;3.30;;;10.30;99.90;;;;;;4974258;28;20066;-87
2022/10/13 03:38:06;;;;;;;6.63;3.13;;;9.60;99.90;;;;;;4974138;28;20521;-88
2022/10/13 03:40:35;;;;;;;5.82;2.50;;;9.30;99.90;;;;;;4972403;28;20078;-88
2022/10/13 03:43:00;;;;;;;5.22;3.00;;;9.60;99.90;;;;;;4972455;28;20117;-86
2022/10/13 03:45:26;;;;;;;6.00;2.53;;;9.60;99.90;;;;;;4971839;28;20043;-86
2022/10/13 03:47:52;;;;;;;5.93;2.83;;;9.30;99.90;;;;;;4972586;28;20082;-87
2022/10/13 03:50:17;;;;;;;8.05;2.55;;;10.20;99.90;;;;;;4972097;28;20039;-88
2022/10/13 03:52:43;;;;;;;6.38;2.78;;;9.40;99.90;;;;;;4971706;28;20403;-92
2022/10/13 03:55:09;;;;;;;5.43;2.33;;;9.40;99.90;;;;;;4976115;28;20046;-87
2022/10/13 03:57:35;;;;;;;6.63;2.97;;;9.40;99.90;;;;;;4973024;28;20177;-88
2022/10/13 04:00:02;;;;;;;6.47;3.00;;;9.90;99.90;;;;;;4978254;28;20071;-86
2022/10/13 04:02:28;;;;;;;6.18;2.40;;;9.40;99.90;;;;;;4992065;28;20451;-87
2022/10/13 04:04:54;;;;;;;4.07;2.53;;;10.00;99.90;;;;;;4982942;28;20055;-86
2022/10/13 04:07:19;;;;;;;5.35;2.58;;;10.50;99.90;;;;;;4978354;28;20035;-87
2022/10/13 04:09:45;;;;;;;5.85;3.00;;;9.50;99.90;;;;;;4977918;28;20169;-86
2022/10/13 04:12:11;;;;;;;4.43;2.45;;;10.10;99.90;;;;;;4984603;28;20125;-87
2022/10/13 04:14:36;;;;;;;5.15;3.17;;;9.50;99.90;;;;;;4984221;28;20406;-87
2022/10/13 04:17:02;;;;;;;6.60;2.92;;;9.70;99.90;;;;;;4975807;28;20471;-87
2022/10/13 04:19:28;;;;;;;6.43;3.00;;;9.50;99.90;;;;;;4976866;28;20506;-87
2022/10/13 04:21:53;;;;;;;5.07;2.63;;;9.60;99.90;;;;;;4977275;28;20046;-87
2022/10/13 04:24:19;;;;;;;8.70;2.88;;;10.20;99.90;;;;;;4974842;28;20144;-87
2022/10/13 04:26:45;;;;;;;7.22;2.90;;;10.30;99.90;;;;;;4976432;28;20395;-86
2022/10/13 04:29:11;;;;;;;4.53;2.65;;;9.10;99.90;;;;;;4975497;28;20050;-86
2022/10/13 04:31:39;;;;;;;8.48;2.67;;;9.60;99.90;;;;;;4975238;28;20046;-87
2022/10/13 04:34:06;;;;;;;4.32;2.40;;;9.60;99.90;;;;;;4977023;28;20038;-87
2022/10/13 04:36:32;;;;;;;5.25;2.90;;;9.60;99.90;;;;;;4975261;28;20137;-87
2022/10/13 04:38:57;;;;;;;5.88;2.85;;;10.40;99.90;;;;;;4974583;28;20133;-87
2022/10/13 04:41:24;;;;;;;8.07;3.33;;;10.30;99.90;;;;;;4975369;28;20053;-87
2022/10/13 04:43:51;;;;;;;6.28;2.75;;;10.20;99.90;;;;;;4979314;28;20495;-87
2022/10/13 04:46:20;;;;;;;5.90;3.17;;;10.10;99.90;;;;;;4978197;28;20068;-88
2022/10/13 04:48:46;;;;;;;5.38;2.67;;;9.70;99.90;;;;;;4982621;28;20042;-87
2022/10/13 04:51:16;;;;;;;6.03;2.90;;;9.70;99.90;;;;;;4981234;28;20085;-87
2022/10/13 04:53:42;;;;;;;5.55;3.22;;;9.60;99.90;;;;;;4974772;28;20042;-86
2022/10/13 04:56:11;;;;;;;5.85;2.97;;;10.30;99.90;;;;;;4975265;28;20438;-88
2022/10/13 04:58:38;;;;;;;7.00;2.47;;;10.70;99.90;;;;;;4978128;28;20077;-86
2022/10/13 05:01:06;;;;;;;5.03;2.70;;;10.20;99.90;;;;;;4974738;28;20368;-87
2022/10/13 05:03:33;;;;;;;7.10;3.22;;;9.70;99.90;;;;;;4974958;28;20090;-87
2022/10/13 05:05:59;;;;;;;7.35;3.08;;;9.70;99.90;;;;;;4976546;28;20181;-86
2022/10/13 05:08:25;;;;;;;6.55;2.50;;;10.40;99.90;;;;;;4979064;28;20038;-86
2022/10/13 05:11:01;;;;;;;5.80;2.92;;;9.70;99.90;;;;;;4982920;28;20054;-87
2022/10/13 05:13:28;;;;;;;6.85;2.90;;;9.80;99.90;;;;;;4974469;28;20113;-87
2022/10/13 05:15:55;;;;;;;4.82;2.90;;;10.30;99.90;;;;;;4977615;28;20051;-87
2022/10/13 05:18:21;;;;;;;11.23;3.97;;;10.30;99.90;;;;;;4970630;28;20039;-86
2022/10/13 05:20:47;;;;;;;7.35;3.47;;;10.10;99.90;;;;;;4975873;28;20380;-87
2022/10/13 05:23:14;;;;;;;7.25;3.25;;;9.80;99.90;;;;;;4982164;28;20050;-87
2022/10/13 05:25:40;;;;;;;6.97;3.03;;;9.80;99.90;;;;;;4973922;28;20487;-87
2022/10/13 05:28:07;;;;;;;5.18;2.92;;;9.80;99.90;;;;;;4975986;28;20046;-87
2022/10/13 05:30:33;;;;;;;6.18;3.40;;;9.80;99.90;;;;;;4974388;28;20038;-86
2022/10/13 05:32:59;;;;;;;6.47;3.13;;;9.80;99.90;;;;;;4975755;28;20125;-87
2022/10/13 05:35:25;;;;;;;4.82;2.90;;;9.90;99.90;;;;;;4974053;28;20205;-87
2022/10/13 05:37:51;;;;;;;7.43;3.20;;;9.80;99.90;;;;;;4974258;28;20054;-88
2022/10/13 05:40:19;;;;;;;5.22;3.08;;;9.80;99.90;;;;;;4976161;28;20054;-87
2022/10/13 05:42:46;;;;;;;4.38;2.75;;;10.00;99.90;;;;;;4977968;28;20122;-87
2022/10/13 05:45:11;;;;;;;7.25;3.15;;;10.10;99.90;;;;;;4975190;28;20043;-88
2022/10/13 05:47:37;;;;;;;6.30;3.65;;;9.90;99.90;;;;;;4973726;28;20031;-88
2022/10/13 05:50:03;;;;;;;6.68;2.88;;;9.90;99.90;;;;;;4973864;28;20055;-89
2022/10/13 05:52:32;;;;;;;7.30;3.55;;;9.90;99.90;;;;;;4976649;28;20046;-87
2022/10/13 05:55:01;;;;;;;4.75;2.72;;;9.90;99.90;;;;;;4978218;28;20051;-87
2022/10/13 05:57:40;;;;;;;4.13;2.20;;;9.90;99.90;;;;;;4973592;28;20057;-87
2022/10/13 06:00:17;;;;;;;4.43;2.55;;;9.90;99.90;;;;;;4973683;28;20483;-87
2022/10/13 06:02:52;;;;;;;5.70;3.15;;;9.90;99.90;;;;;;4973816;28;20047;-87
2022/10/13 06:05:20;;;;;;;5.57;2.88;;;9.90;99.90;;;;;;4957681;28;20499;-87
2022/10/13 06:07:47;;;;;;;5.95;3.05;;;11.00;99.90;;;;;;4980345;28;20082;-87
2022/10/13 06:10:24;;;;;;;8.65;4.03;;;9.90;99.90;;;;;;4978708;28;20113;-90
2022/10/13 06:26:39;;;;;;;7.72;3.28;;;10.00;99.90;;;;;;4985767;28;20077;-91
2022/10/13 06:29:22;;;;;;;5.97;3.13;;;9.90;99.90;;;;;;4975269;28;20399;-89
2022/10/13 06:31:48;;;;;;;8.10;3.83;;;9.90;99.90;;;;;;4975203;28;20043;-90
2022/10/13 06:34:14;;;;;;;7.40;3.35;;;10.00;99.90;;;;;;4973397;28;20062;-90
2022/10/13 06:36:41;;;;;;;6.80;3.03;;;9.90;99.90;;;;;;4973548;28;20482;-88
2022/10/13 06:39:07;;;;;;;5.57;2.53;;;10.80;99.90;;;;;;4972789;28;20517;-90
2022/10/13 06:41:33;;;;;;;5.93;2.72;;;10.00;99.90;;;;;;4972930;28;20030;-90
2022/10/13 06:43:59;;;;;;;4.60;2.08;;;10.00;99.90;;;;;;4972721;28;20049;-89
2022/10/13 06:46:25;;;;;;;5.28;2.30;;;10.00;99.90;;;;;;4981383;28;20049;-92
2022/10/13 06:48:51;;;;;;;6.97;2.70;;;10.20;99.90;;;;;;4981129;28;20085;-86
2022/10/13 06:51:17;;;;;;;4.35;2.38;;;10.20;99.90;;;;;;4973071;28;20043;-89
2022/10/13 06:53:43;;;;;;;9.70;4.18;;;10.20;99.90;;;;;;4972579;28;20053;-89
2022/10/13 06:56:11;;;;;;;7.82;3.75;;;10.70;99.90;;;;;;4984475;28;20045;-88
2022/10/13 06:58:37;;;;;;;7.18;3.78;;;10.20;99.90;;;;;;4960814;28;20049;-83
2022/10/13 07:01:04;;;;;;;6.38;3.20;;;10.30;99.90;;;;;;4974064;28;20410;-88
2022/10/13 07:03:30;;;;;;;8.30;3.80;;;10.30;99.90;;;;;;4972960;28;20150;-91
2022/10/13 07:06:04;;;;;;;8.35;3.63;;;10.30;99.90;;;;;;4972853;28;20545;-88
2022/10/13 07:08:30;;;;;;;8.40;3.63;;;10.30;99.90;;;;;;4978550;28;20039;-88
2022/10/13 07:10:56;;;;;;;5.68;2.88;;;10.60;99.90;;;;;;4974136;28;20082;-90
2022/10/13 07:13:22;;;;;;;6.43;3.15;;;11.20;99.90;;;;;;4976445;28;20110;-87
2022/10/13 07:15:48;;;;;;;9.98;3.08;;;11.10;99.90;;;;;;4981202;28;20448;-91
2022/10/13 07:18:13;;;;;;;6.72;3.28;;;10.50;99.90;;;;;;4972665;28;20054;-90
2022/10/13 07:20:39;;;;;;;5.68;3.13;;;10.70;99.90;;;;;;4972932;28;20129;-91
2022/10/13 07:23:05;;;;;;;6.07;2.67;;;10.60;99.90;;;;;;4972739;28;20053;-91
2022/10/13 07:25:30;;;;;;;6.57;2.92;;;11.40;99.90;;;;;;4972630;28;20030;-91
2022/10/13 07:27:59;;;;;;;6.88;3.25;;;11.40;99.90;;;;;;4974934;28;20620;-89
2022/10/13 07:30:25;;;;;;;6.47;3.58;;;10.80;99.90;;;;;;4991300;28;20043;-92
2022/10/13 07:32:52;;;;;;;5.22;2.85;;;10.90;99.90;;;;;;4984950;28;20086;-87
2022/10/13 07:35:24;;;;;;;7.63;4.00;;;11.00;99.90;;;;;;5007364;28;20051;-86
2022/10/13 07:37:51;;;;;;;7.05;3.63;;;11.00;99.90;;;;;;4993412;28;20074;-85
2022/10/13 07:46:53;;;;;;;14.05;6.50;;;11.20;99.90;;;;;;5031076;28;20048;-92
2022/10/13 07:49:19;;;;;;;14.32;6.65;;;12.10;99.90;;;;;;5032636;28;20058;-87
2022/10/13 07:51:46;;;;;;;13.13;6.55;;;11.40;99.90;;;;;;5033340;28;20130;-89
2022/10/13 07:54:11;;;;;;;10.38;6.95;;;11.40;99.90;;;;;;5031101;28;20042;-93
2022/10/13 07:56:40;;;;;;;14.55;6.97;;;11.40;99.90;;;;;;5026923;28;20545;-90
2022/10/13 07:59:06;;;;;;;14.85;7.40;;;11.80;99.90;;;;;;5024843;28;20077;-92
2022/10/13 08:01:31;;;;;;;12.48;7.05;;;11.60;99.90;;;;;;4989750;28;20564;-89
2022/10/13 08:03:58;;;;;;;13.98;6.88;;;11.60;99.90;;;;;;5009383;23;20051;-85
2022/10/13 08:06:25;;;;;;;18.17;8.15;;;11.70;99.90;;;;;;4986703;28;20383;-94
2022/10/13 08:08:51;;;;;;;15.57;7.10;;;11.70;99.90;;;;;;4986075;28;20055;-91
2022/10/13 08:11:17;;;;;;;16.55;8.10;;;11.80;99.90;;;;;;4985021;28;20079;-93
2022/10/13 08:13:48;;;;;;;11.02;6.38;;;11.80;99.90;;;;;;4986371;28;20043;-90
2022/10/13 08:16:14;;;;;;;11.38;6.55;;;12.70;99.90;;;;;;4976270;28;20037;-89
2022/10/13 08:18:40;;;;;;;12.25;6.35;;;11.90;99.90;;;;;;4993438;28;20110;-88
2022/10/13 08:21:11;;;;;;;11.50;6.05;;;12.00;99.90;;;;;;4974411;28;20043;-88
2022/10/13 08:23:37;;;;;;;12.75;5.88;;;12.00;99.90;;;;;;4980419;28;20054;-86
2022/10/13 08:26:03;;;;;;;12.68;6.63;;;12.50;99.90;;;;;;4982945;28;20047;-86
2022/10/13 08:28:28;;;;;;;12.70;6.80;;;12.10;99.90;;;;;;4996884;28;20043;-88
2022/10/13 08:30:58;;;;;;;12.07;7.53;;;12.20;99.90;;;;;;4996862;28;20066;-89
2022/10/13 08:33:25;;;;;;;14.07;6.68;;;12.20;99.90;;;;;;4965981;28;20062;-89
2022/10/13 08:35:52;;;;;;;10.88;5.55;;;12.30;99.90;;;;;;4979759;28;20093;-90
2022/10/13 08:38:18;;;;;;;9.57;5.80;;;13.10;99.90;;;;;;4960956;28;20054;-91
2022/10/13 08:40:48;;;;;;;8.63;4.75;;;12.30;99.90;;;;;;4960702;28;20043;-93
2022/10/13 08:47:39;;;;;;;8.35;4.78;;;12.30;99.90;;;;;;4976124;28;20046;-93
2022/10/13 08:50:21;;;;;;;13.18;6.13;;;12.30;99.90;;;;;;4936266;29;20052;-90
2022/10/13 08:52:53;;;;;;;15.23;7.07;;;12.30;99.90;;;;;;4920774;29;20055;-90
2022/10/13 08:55:27;;;;;;;12.57;8.00;;;12.30;99.90;;;;;;4936649;29;20066;-93
2022/10/13 08:57:53;;;;;;;14.60;7.47;;;12.30;99.90;;;;;;4920277;29;20059;-90
2022/10/13 09:00:19;;;;;;;17.17;8.13;;;12.30;99.90;;;;;;4920645;29;20047;-90
2022/10/13 09:02:45;;;;;;;11.32;6.32;;;12.30;99.90;;;;;;4936066;29;20051;-92
2022/10/13 09:05:23;;;;;;;12.55;7.13;;;12.50;99.90;;;;;;4920259;29;20091;-91
2022/10/13 09:07:52;;;;;;;13.40;6.85;;;12.40;99.90;;;;;;4920655;29;20138;-90
2022/10/13 09:10:18;;;;;;;10.88;6.30;;;12.00;99.90;;;;;;4920568;29;20058;-92
2022/10/13 09:12:43;;;;;;;10.05;5.65;;;12.50;99.90;;;;;;4936188;29;20063;-91
2022/10/13 09:15:11;;;;;;;10.48;5.57;;;12.50;99.90;;;;;;4920139;29;20134;-85
2022/10/13 09:17:39;;;;;;;11.82;7.05;;;12.60;99.90;;;;;;4919259;29;22057;-87
2022/10/13 09:20:21;;;;;;;12.50;7.70;;;12.60;99.90;;;;;;4935349;29;20063;-88
2022/10/13 09:23:04;;;;;;;12.90;7.10;;;12.70;99.90;;;;;;4934984;29;20047;-91
2022/10/13 09:25:40;;;;;;;18.65;8.35;;;12.70;99.90;;;;;;4926091;28;20077;-88
2022/10/13 09:28:27;;;;;;;14.48;7.30;;;12.90;99.90;;;;;;4947218;28;20044;-90
2022/10/13 09:31:24;;;;;;;16.80;8.90;;;12.80;99.90;;;;;;4971224;28;20046;-90
2022/10/13 09:34:01;;;;;;;14.52;7.97;;;12.90;99.90;;;;;;4916577;29;20112;-91
2022/10/13 09:36:27;;;;;;;20.73;7.45;;;13.30;99.90;;;;;;4934917;29;20131;-86
2022/10/13 09:39:15;;;;;;;12.90;7.63;;;12.90;99.90;;;;;;4931115;29;20082;-89
2022/10/13 09:41:43;;;;;;;17.02;7.57;;;13.00;99.90;;;;;;4918944;29;20191;-88
2022/10/13 09:44:21;;;;;;;11.50;6.88;;;13.70;99.90;;;;;;4916993;29;20643;-88
2022/10/13 09:46:55;;;;;;;18.02;8.68;;;13.00;99.90;;;;;;4928159;29;20054;-87
2022/10/13 09:49:38;;;;;;;12.93;7.47;;;13.00;99.90;;;;;;4937857;29;20074;-86
2022/10/13 09:52:15;;;;;;;16.10;9.65;;;13.20;99.90;;;;;;4916724;29;20139;-87
2022/10/13 09:54:47;;;;;;;15.98;8.27;;;12.50;99.90;;;;;;4916571;29;20044;-90
2022/10/13 09:57:18;;;;;;;17.13;8.75;;;13.20;99.90;;;;;;4918739;29;20060;-85
2022/10/13 10:00:00;;;;;;;16.65;7.65;;;13.00;99.90;;;;;;4911624;29;20048;-92
2022/10/13 10:03:05;;;;;;;13.75;7.90;;;13.10;99.90;;;;;;4915307;29;20047;-89
2022/10/13 10:05:36;;;;;;;13.73;6.50;;;13.20;99.90;;;;;;4914481;29;20476;-89
2022/10/13 10:08:17;;;;;;;16.15;7.00;;;13.20;99.90;;;;;;4902858;29;20103;-90
2022/10/13 10:10:43;;;;;;;11.57;6.75;;;13.20;99.90;;;;;;4891240;29;20060;-90
2022/10/13 10:13:11;;;;;;;13.45;7.78;;;13.20;99.90;;;;;;4881108;29;20062;-89
2022/10/13 10:15:51;;;;;;;9.00;5.38;;;13.30;99.90;;;;;;4892529;29;20136;-92
2022/10/13 10:18:33;;;;;;;10.93;6.32;;;13.30;99.90;;;;;;4876329;29;20437;-84
2022/10/13 10:21:04;;;;;;;9.57;5.75;;;13.30;99.90;;;;;;4878174;29;20076;-86
2022/10/13 10:23:47;;;;;;;8.40;5.35;;;13.40;99.90;;;;;;4878896;29;20060;-87
2022/10/13 10:26:50;;;;;;;8.57;4.85;;;13.40;99.90;;;;;;4884502;29;20394;-88
2022/10/13 10:29:26;;;;;;;9.95;5.32;;;13.40;99.90;;;;;;4869019;29;20065;-86
2022/10/13 10:32:04;;;;;;;11.75;5.70;;;13.40;99.90;;;;;;4878156;29;20080;-87
2022/10/13 10:34:44;;;;;;;9.07;4.88;;;13.40;99.90;;;;;;4877063;29;20404;-89
2022/10/13 10:37:37;;;;;;;8.30;4.90;;;13.50;99.90;;;;;;4858384;29;20509;-88
2022/10/13 10:40:21;;;;;;;7.10;3.55;;;13.60;99.90;;;;;;4881155;29;20061;-88
2022/10/13 10:43:06;;;;;;;11.10;5.80;;;13.60;99.90;;;;;;4906013;29;20220;-86
2022/10/13 10:45:37;;;;;;;10.65;6.35;;;13.60;99.90;;;;;;4916426;29;20083;-86
2022/10/13 10:48:19;;;;;;;10.25;5.40;;;13.70;99.90;;;;;;4894511;29;20048;-85
2022/10/13 10:50:47;;;;;;;9.73;4.82;;;13.60;99.90;;;;;;4911023;29;20056;-85
2022/10/13 10:53:21;;;;;;;8.88;4.93;;;14.00;99.90;;;;;;4909626;29;20056;-85
2022/10/13 10:55:49;;;;;;;9.75;4.85;;;13.60;99.90;;;;;;4890370;29;20056;-89
2022/10/13 11:02:10;;;;;;;9.75;5.43;;;13.60;99.90;;;;;;4907658;29;20088;-89
2022/10/13 11:04:47;;;;;;;9.23;4.97;;;13.70;99.90;;;;;;4891137;29;20135;-86
2022/10/13 11:07:33;;;;;;;11.52;5.75;;;13.70;99.90;;;;;;4948381;28;20051;-85
2022/10/13 11:10:00;;;;;;;7.53;4.05;;;13.70;99.90;;;;;;4914946;29;20051;-89
2022/10/13 11:13:06;;;;;;;7.90;4.57;;;13.80;99.90;;;;;;4944455;29;20051;-88
2022/10/13 11:15:42;;;;;;;6.75;4.28;;;13.80;99.90;;;;;;4919204;29;20043;-84
2022/10/13 11:18:45;;;;;;;6.20;4.25;;;13.80;99.90;;;;;;4937658;29;20051;-87
2022/10/13 11:21:10;;;;;;;7.20;3.22;;;13.80;99.90;;;;;;4937101;29;20617;-86
2022/10/13 11:23:44;;;;;;;10.07;4.88;;;13.80;99.90;;;;;;4931572;29;20123;-88
2022/10/13 11:26:25;;;;;;;8.65;5.07;;;13.70;99.90;;;;;;4933139;29;20106;-84
2022/10/13 11:28:51;;;;;;;6.68;3.17;;;13.90;99.90;;;;;;4952179;29;20582;-85
2022/10/13 11:31:26;;;;;;;7.53;4.18;;;13.90;99.90;;;;;;4933486;29;20216;-85
2022/10/13 11:33:57;;;;;;;8.63;5.53;;;14.00;99.90;;;;;;4933626;29;20063;-85
2022/10/13 11:36:54;;;;;;;9.98;5.85;;;14.00;99.90;;;;;;4932861;29;20523;-88
2022/10/13 11:39:22;;;;;;;;;;;14.10;99.90;;;;;;4934060;29;20115;-86
2022/10/13 11:42:10;;;;;;;8.48;5.05;;;14.20;99.90;;;;;;4916764;29;19923;-85
2022/10/13 11:44:52;;;;;;;8.35;4.93;;;14.20;99.90;;;;;;4929950;29;20140;-86
2022/10/13 11:47:52;;;;;;;8.25;5.40;;;14.20;99.90;;;;;;4942071;28;20051;-87
2022/10/13 11:50:36;;;;;;;7.43;4.70;;;14.20;99.90;;;;;;4952623;28;20050;-84
2022/10/13 11:53:31;;;;;;;7.10;4.15;;;14.30;99.90;;;;;;4964797;28;20050;-85
2022/10/13 11:56:00;;;;;;;6.90;4.15;;;14.30;99.90;;;;;;4957952;28;20111;-84
2022/10/13 11:58:29;;;;;;;6.00;3.55;;;14.30;99.90;;;;;;4960473;28;20501;-82
2022/10/13 12:00:57;;;;;;;8.95;4.72;;;14.40;99.90;;;;;;4952387;28;20086;-83
2022/10/13 12:03:28;;;;;;;6.88;3.67;;;14.50;99.90;;;;;;4947962;28;20399;-84
2022/10/13 12:05:58;;;;;;;6.63;3.42;;;14.50;99.90;;;;;;4971926;28;20053;-85
2022/10/13 12:08:27;;;;;;;6.32;3.75;;;14.60;99.90;;;;;;4956064;28;20572;-86
2022/10/13 12:10:56;;;;;;;5.88;3.92;;;14.70;99.90;;;;;;4963601;28;20058;-83
2022/10/13 12:13:32;;;;;;;6.05;3.25;;;14.70;99.90;;;;;;4949832;28;20050;-84
2022/10/13 12:16:05;;;;;;;7.53;4.57;;;14.80;99.90;;;;;;4950081;28;20203;-85
2022/10/13 12:18:39;;;;;;;5.38;3.42;;;14.80;99.90;;;;;;4953025;28;20285;-86
2022/10/13 12:21:33;;;;;;;5.38;3.45;;;14.80;99.90;;;;;;4960241;28;20071;-83
2022/10/13 12:24:08;;;;;;;9.98;5.80;;;14.90;99.90;;;;;;4935975;29;20067;-85
2022/10/13 12:26:34;;;;;;;6.90;4.47;;;14.90;99.90;;;;;;4950253;29;20051;-87
2022/10/13 12:29:01;;;;;;;6.38;4.18;;;15.20;99.90;;;;;;4936204;29;20080;-85
2022/10/13 12:31:39;;;;;;;5.97;4.07;;;14.70;99.90;;;;;;4935807;29;20444;-86
2022/10/13 12:34:19;;;;;;;10.55;4.00;;;14.80;99.90;;;;;;4937506;28;20381;-85
2022/10/13 12:36:52;;;;;;;9.88;5.15;;;14.80;99.90;;;;;;4940081;29;20051;-86
2022/10/13 12:39:18;;;;;;;6.70;3.35;;;14.80;99.90;;;;;;4923458;29;20626;-86
2022/10/13 12:41:46;;;;;;;7.38;3.92;;;14.80;99.90;;;;;;4936276;29;20084;-88
2022/10/13 12:44:16;;;;;;;5.28;3.30;;;14.70;99.90;;;;;;4935728;29;20127;-85
2022/10/13 12:47:02;;;;;;;7.22;4.20;;;14.80;99.90;;;;;;4919465;29;20047;-87
2022/10/13 12:49:32;;;;;;;6.32;3.70;;;14.70;99.90;;;;;;4943291;29;20047;-86
2022/10/13 12:52:13;;;;;;;6.28;3.40;;;14.80;99.90;;;;;;4935401;29;20143;-86
2022/10/13 12:54:47;;;;;;;6.13;3.58;;;14.80;99.90;;;;;;4907008;29;20067;-84
2022/10/13 12:57:37;;;;;;;6.18;3.67;;;14.80;99.90;;;;;;4938682;29;20051;-85
2022/10/13 13:00:18;;;;;;;7.72;3.75;;;14.80;99.90;;;;;;4956058;28;20058;-84
2022/10/13 13:02:58;;;;;;;4.47;3.15;;;14.70;99.90;;;;;;4966330;28;20039;-87
2022/10/13 13:05:45;;;;;;;4.90;2.90;;;14.70;99.90;;;;;;4966252;28;20117;-87
2022/10/13 13:08:30;;;;;;;5.57;3.13;;;14.70;99.90;;;;;;4962979;28;20138;-84
2022/10/13 13:10:58;;;;;;;4.85;2.90;;;14.90;99.90;;;;;;4954996;28;20074;-85
2022/10/13 13:13:25;;;;;;;5.90;3.65;;;14.80;99.90;;;;;;4973321;28;20081;-87
2022/10/13 13:15:51;;;;;;;5.72;3.85;;;14.70;99.90;;;;;;4975186;28;20561;-88
2022/10/13 13:18:25;;;;;;;6.10;3.55;;;14.80;99.90;;;;;;4973309;28;20046;-85
2022/10/13 13:20:52;;;;;;;5.35;3.47;;;14.70;99.90;;;;;;4967140;28;20070;-86
2022/10/13 13:23:18;;;;;;;4.53;2.70;;;14.80;99.90;;;;;;4973316;28;20050;-85
2022/10/13 13:26:08;;;;;;;4.50;2.17;;;14.80;99.90;;;;;;4954791;28;20502;-86
2022/10/13 13:28:33;;;;;;;5.25;3.00;;;14.90;99.90;;;;;;4931351;29;20056;-83
2022/10/13 13:30:59;;;;;;;4.10;2.40;;;15.00;99.90;;;;;;4935475;29;20043;-85
2022/10/13 13:33:25;;;;;;;5.10;3.10;;;14.90;99.90;;;;;;4918569;29;20634;-84
2022/10/13 13:35:51;;;;;;;5.50;3.08;;;14.90;99.90;;;;;;4935010;29;20043;-86
2022/10/13 13:38:17;;;;;;;5.10;3.03;;;15.40;99.90;;;;;;4942370;29;20153;-86
2022/10/13 13:40:43;;;;;;;6.45;3.83;;;15.10;99.90;;;;;;4934717;29;20179;-87
2022/10/13 13:43:08;;;;;;;9.65;4.85;;;14.90;99.90;;;;;;4934510;29;20051;-88
2022/10/13 13:45:34;;;;;;;6.53;3.10;;;15.30;99.90;;;;;;4934406;29;20051;-87
2022/10/13 13:48:01;;;;;;;7.90;3.30;;;14.90;99.90;;;;;;4927223;29;20048;-86
2022/10/13 13:50:31;;;;;;;7.18;4.70;;;14.90;99.90;;;;;;4934960;29;20126;-85
2022/10/13 13:52:58;;;;;;;6.78;3.80;;;15.00;99.90;;;;;;4934997;29;20051;-84
2022/10/13 13:55:25;;;;;;;5.88;3.40;;;15.10;99.90;;;;;;4935100;29;20047;-86
2022/10/13 13:57:50;;;;;;;5.70;3.30;;;15.00;99.90;;;;;;4926628;29;20523;-83
2022/10/13 14:00:17;;;;;;;7.05;4.18;;;15.00;99.90;;;;;;4918755;29;20162;-87
2022/10/13 14:02:43;;;;;;;4.78;3.35;;;15.00;99.90;;;;;;4919146;29;20047;-87
2022/10/13 14:05:11;;;;;;;6.65;3.45;;;15.00;99.90;;;;;;4945737;28;20061;-85
2022/10/13 14:07:37;;;;;;;5.50;3.78;;;15.00;99.90;;;;;;4967191;28;20043;-88
2022/10/13 14:10:03;;;;;;;5.65;3.25;;;14.90;99.90;;;;;;4967211;28;20461;-83
2022/10/13 14:12:32;;;;;;;7.72;3.55;;;14.90;99.90;;;;;;4959606;28;20078;-84
2022/10/13 14:14:58;;;;;;;3.90;2.17;;;14.90;99.90;;;;;;4964930;28;20045;-83
2022/10/13 14:17:24;;;;;;;6.70;4.03;;;14.90;99.90;;;;;;4951842;28;20118;-86
2022/10/13 14:19:53;;;;;;;4.40;2.45;;;14.80;99.90;;;;;;4946876;29;20047;-83
2022/10/13 14:22:22;;;;;;;4.40;2.83;;;14.80;99.90;;;;;;4964023;28;20039;-83
2022/10/13 14:24:47;;;;;;;4.55;2.63;;;14.70;99.90;;;;;;4960411;28;20098;-84
2022/10/13 14:27:13;;;;;;;4.68;3.55;;;15.20;99.90;;;;;;4954126;28;20094;-83
2022/10/13 14:29:39;;;;;;;8.15;4.65;;;15.00;99.90;;;;;;4953175;28;20096;-82
2022/10/13 14:32:05;;;;;;;5.68;3.17;;;14.70;99.90;;;;;;4955724;28;20221;-83
2022/10/13 14:34:32;;;;;;;7.38;4.15;;;14.70;99.90;;;;;;4950549;29;20078;-84
2022/10/13 14:36:58;;;;;;;6.25;3.28;;;14.70;99.90;;;;;;4961583;28;20447;-85
2022/10/13 14:39:23;;;;;;;7.82;3.53;;;14.60;99.90;;;;;;4961407;28;20047;-83
2022/10/13 14:41:49;;;;;;;5.18;2.95;;;14.60;99.90;;;;;;4947241;29;20054;-82
2022/10/13 14:44:15;;;;;;;5.95;3.25;;;14.60;99.90;;;;;;4961648;28;20046;-83